Time;durP1;ratioP1;P1;durP2;ratioP2;P2;SDS_P1;SDS_P2;PMS_P1;PMS_P2;Temp;Humidity;BMP_temperature;BMP_pressure;BME280_temperature;BME280_humidity;BME280_pressure;Samples;Min_cycle;Max_cycle;Signal;HPM_P1;HPM_P2
2022/05/25 00:02:25;;;;;;;13.57;7.28;;;11.10;99.90;;;;;;4946492;28;20042;-63
2022/05/25 00:04:52;;;;;;;10.25;7.40;;;11.10;99.90;;;;;;4947989;28;20062;-64
2022/05/25 00:07:18;;;;;;;12.45;7.90;;;11.10;99.90;;;;;;4948541;28;20500;-65
2022/05/25 00:09:45;;;;;;;10.23;7.45;;;11.10;99.90;;;;;;4935633;28;20241;-66
2022/05/25 00:12:11;;;;;;;9.27;8.20;;;11.10;99.90;;;;;;4945580;28;20805;-65
2022/05/25 00:14:37;;;;;;;8.35;7.22;;;11.10;99.90;;;;;;4948550;28;20136;-65
2022/05/25 00:17:04;;;;;;;10.25;7.15;;;11.10;99.90;;;;;;4946682;28;20067;-64
2022/05/25 00:22:14;;;;;;;9.20;8.18;;;11.00;99.90;;;;;;4948237;28;20055;-63
2022/05/25 00:24:39;;;;;;;13.95;8.38;;;11.00;99.90;;;;;;4951275;28;20039;-64
2022/05/25 00:27:06;;;;;;;9.25;7.47;;;11.00;99.90;;;;;;4954017;28;20038;-66
2022/05/25 00:29:32;;;;;;;10.65;8.57;;;11.00;99.90;;;;;;4946407;28;20341;-65
2022/05/25 00:31:59;;;;;;;13.02;9.32;;;10.90;99.90;;;;;;4948728;28;20047;-64
2022/05/25 00:34:25;;;;;;;10.43;8.57;;;10.90;99.90;;;;;;4948157;28;20055;-63
2022/05/25 00:36:51;;;;;;;10.48;8.60;;;10.90;99.90;;;;;;4947022;28;20109;-66
2022/05/25 00:39:17;;;;;;;11.70;7.78;;;10.90;99.90;;;;;;4955676;28;20035;-64
2022/05/25 00:41:43;;;;;;;10.95;8.77;;;10.90;99.90;;;;;;4946844;28;20039;-64
2022/05/25 00:44:09;;;;;;;10.70;7.90;;;10.80;99.90;;;;;;4949816;28;20539;-64
2022/05/25 00:46:37;;;;;;;12.88;8.55;;;10.80;99.90;;;;;;4945694;28;21822;-65
2022/05/25 00:49:04;;;;;;;10.07;8.23;;;10.80;99.90;;;;;;4950127;28;20449;-63
2022/05/25 00:51:44;;;;;;;11.55;8.90;;;10.80;99.90;;;;;;4948208;28;20270;-64
2022/05/25 00:54:18;;;;;;;12.63;8.75;;;10.80;99.90;;;;;;4933061;28;20050;-64
2022/05/25 00:56:48;;;;;;;14.40;8.98;;;10.70;99.90;;;;;;4948726;28;20053;-63
2022/05/25 00:59:21;;;;;;;10.13;8.52;;;10.70;99.90;;;;;;4954920;28;20039;-63
2022/05/25 01:01:48;;;;;;;10.90;8.57;;;10.70;99.90;;;;;;4945069;28;20027;-65
2022/05/25 01:04:15;;;;;;;11.60;9.50;;;10.70;99.90;;;;;;4949673;28;20173;-63
2022/05/25 01:07:01;;;;;;;11.02;8.00;;;10.70;99.90;;;;;;4943885;28;20046;-66
2022/05/25 01:09:33;;;;;;;12.68;8.27;;;10.70;99.90;;;;;;4947842;28;20411;-66
2022/05/25 01:12:11;;;;;;;11.65;8.98;;;10.70;99.90;;;;;;4946648;28;20089;-62
2022/05/25 01:15:26;;;;;;;12.10;8.70;;;10.70;99.90;;;;;;4962102;28;20047;-64
2022/05/25 01:18:41;;;;;;;14.23;10.10;;;10.60;99.90;;;;;;4934063;28;20035;-62
2022/05/25 01:21:37;;;;;;;12.93;9.10;;;10.60;99.90;;;;;;4935881;28;20047;-65
2022/05/25 01:24:21;;;;;;;13.35;8.93;;;10.60;99.90;;;;;;4928589;28;20495;-64
2022/05/25 01:27:21;;;;;;;14.52;8.88;;;10.60;99.90;;;;;;4953673;28;20035;-65
2022/05/25 01:30:18;;;;;;;12.32;8.02;;;10.60;99.90;;;;;;4952513;28;20035;-65
2022/05/25 01:33:17;;;;;;;12.45;9.52;;;10.60;99.90;;;;;;4958366;28;20039;-66
2022/05/25 01:36:04;;;;;;;13.15;9.68;;;10.60;99.90;;;;;;4950942;28;20043;-66
2022/05/25 01:38:42;;;;;;;12.35;8.60;;;10.60;99.90;;;;;;4951924;28;20474;-65
2022/05/25 01:41:20;;;;;;;13.95;9.43;;;10.60;99.90;;;;;;4954527;28;20129;-65
2022/05/25 01:44:13;;;;;;;14.93;9.75;;;10.60;99.90;;;;;;4966893;28;20113;-64
2022/05/25 01:46:42;;;;;;;12.02;10.02;;;10.60;99.90;;;;;;4964059;28;20042;-63
2022/05/25 01:49:13;;;;;;;14.13;10.40;;;10.50;99.90;;;;;;4942297;28;20579;-66
2022/05/25 01:51:43;;;;;;;11.93;10.10;;;10.60;99.90;;;;;;4985777;28;20356;-63
2022/05/25 01:54:13;;;;;;;15.07;10.10;;;10.50;99.90;;;;;;4952286;28;21815;-64
2022/05/25 01:56:43;;;;;;;11.73;9.38;;;10.60;99.90;;;;;;4947144;28;20046;-65
2022/05/25 01:59:12;;;;;;;13.98;10.60;;;10.50;99.90;;;;;;4957825;28;20499;-65
2022/05/25 02:04:42;;;;;;;12.55;10.93;;;10.50;99.90;;;;;;4947418;28;20047;-63
2022/05/25 02:07:29;;;;;;;13.73;9.95;;;10.50;99.90;;;;;;4954185;28;20050;-65
2022/05/25 02:10:16;;;;;;;15.30;11.02;;;10.50;99.90;;;;;;4942361;28;20531;-66
2022/05/25 02:12:47;;;;;;;14.70;11.38;;;10.50;99.90;;;;;;4951446;28;20378;-63
2022/05/25 02:15:52;;;;;;;14.95;10.98;;;10.50;99.90;;;;;;4955888;28;20497;-63
2022/05/25 02:18:36;;;;;;;15.68;11.23;;;10.40;99.90;;;;;;4952093;28;20086;-64
2022/05/25 02:21:24;;;;;;;13.55;10.60;;;10.40;99.90;;;;;;4947219;28;20053;-64
2022/05/25 02:24:00;;;;;;;15.02;10.77;;;10.40;99.90;;;;;;4948430;28;20051;-63
2022/05/25 02:26:39;;;;;;;14.38;10.45;;;10.40;99.90;;;;;;4966953;28;20047;-66
2022/05/25 02:29:35;;;;;;;19.25;12.35;;;10.40;99.90;;;;;;4948054;28;20058;-65
2022/05/25 02:32:11;;;;;;;15.25;9.98;;;10.40;99.90;;;;;;4961590;28;20510;-64
2022/05/25 02:34:40;;;;;;;13.10;10.55;;;10.40;99.90;;;;;;4951518;28;20567;-66
2022/05/25 02:37:07;;;;;;;11.07;9.88;;;10.30;99.90;;;;;;4944793;28;20043;-63
2022/05/25 02:39:33;;;;;;;13.02;10.57;;;10.30;99.90;;;;;;4957575;28;20367;-63
2022/05/25 02:41:59;;;;;;;14.15;10.77;;;10.30;99.90;;;;;;4950198;28;20289;-63
2022/05/25 02:44:25;;;;;;;14.48;10.27;;;10.20;99.90;;;;;;4948657;28;20050;-62
2022/05/25 02:46:52;;;;;;;12.90;10.82;;;10.20;99.90;;;;;;4950952;28;20050;-66
2022/05/25 02:49:18;;;;;;;12.65;10.00;;;10.20;99.90;;;;;;4950284;28;20031;-64
2022/05/25 02:51:45;;;;;;;15.65;10.88;;;10.20;99.90;;;;;;4949048;28;20047;-65
2022/05/25 02:54:11;;;;;;;14.77;9.13;;;10.20;99.90;;;;;;4952118;28;20489;-66
2022/05/25 02:56:37;;;;;;;12.68;10.35;;;10.20;99.90;;;;;;4937517;28;20130;-65
2022/05/25 02:59:03;;;;;;;11.52;8.55;;;10.10;99.90;;;;;;4966206;28;20038;-63
2022/05/25 03:01:28;;;;;;;13.30;10.02;;;10.10;99.90;;;;;;4953697;28;20113;-63
2022/05/25 03:03:54;;;;;;;14.50;10.43;;;10.10;99.90;;;;;;4953557;28;20190;-62
2022/05/25 03:06:21;;;;;;;12.30;10.30;;;10.10;99.90;;;;;;4953814;28;20042;-62
2022/05/25 03:08:47;;;;;;;12.05;9.27;;;10.10;99.90;;;;;;4950196;28;20039;-63
2022/05/25 03:11:13;;;;;;;13.98;9.68;;;10.10;99.90;;;;;;4944550;28;20263;-63
2022/05/25 03:13:39;;;;;;;13.95;9.90;;;10.10;99.90;;;;;;4941063;28;20458;-63
2022/05/25 03:16:07;;;;;;;10.43;8.20;;;10.10;99.90;;;;;;4946617;28;20117;-66
2022/05/25 03:18:34;;;;;;;11.63;9.48;;;10.10;99.90;;;;;;4964175;28;20050;-63
2022/05/25 03:20:59;;;;;;;15.68;10.00;;;10.10;99.90;;;;;;4948420;28;20046;-63
2022/05/25 03:23:25;;;;;;;11.23;9.30;;;10.10;99.90;;;;;;4943940;28;20042;-62
2022/05/25 03:25:51;;;;;;;9.68;8.68;;;10.00;99.90;;;;;;4949488;28;20120;-65
2022/05/25 03:28:17;;;;;;;10.73;8.15;;;10.00;99.90;;;;;;4951709;28;20417;-64
2022/05/25 03:30:45;;;;;;;11.32;8.77;;;10.00;99.90;;;;;;4948235;28;20051;-65
2022/05/25 03:33:11;;;;;;;13.32;9.52;;;10.00;99.90;;;;;;4954475;28;20097;-63
2022/05/25 03:35:37;;;;;;;14.73;10.10;;;10.00;99.90;;;;;;4950308;28;20461;-65
2022/05/25 03:38:04;;;;;;;12.40;8.82;;;10.00;99.90;;;;;;4965414;28;20043;-64
2022/05/25 03:40:31;;;;;;;11.82;9.57;;;10.00;99.90;;;;;;4962600;28;20074;-62
2022/05/25 03:42:57;;;;;;;13.00;10.30;;;10.00;99.90;;;;;;4962212;28;20046;-64
2022/05/25 03:45:24;;;;;;;11.88;9.73;;;10.00;99.90;;;;;;4962713;28;20462;-65
2022/05/25 03:47:50;;;;;;;14.52;9.75;;;10.00;99.90;;;;;;4964843;28;20093;-63
2022/05/25 03:50:18;;;;;;;15.50;10.20;;;10.00;99.90;;;;;;4965780;28;20109;-63
2022/05/25 03:52:44;;;;;;;16.67;11.02;;;10.00;99.90;;;;;;4928061;28;20097;-65
2022/05/25 03:55:10;;;;;;;14.45;9.90;;;10.00;99.90;;;;;;4963478;28;20073;-63
2022/05/25 03:57:36;;;;;;;14.20;10.77;;;10.00;99.90;;;;;;4949159;28;20063;-65
2022/05/25 04:00:04;;;;;;;14.77;10.90;;;10.00;99.90;;;;;;4950972;28;20035;-62
2022/05/25 04:02:30;;;;;;;18.38;9.77;;;10.00;99.90;;;;;;4942107;28;20125;-63
2022/05/25 04:05:08;;;;;;;14.32;11.23;;;10.10;99.90;;;;;;4946901;28;20039;-62
2022/05/25 04:07:42;;;;;;;14.38;9.50;;;10.00;99.90;;;;;;4949674;28;20038;-62
2022/05/25 04:10:12;;;;;;;17.35;10.55;;;10.10;99.90;;;;;;4952837;28;20086;-63
2022/05/25 04:12:42;;;;;;;12.55;10.60;;;10.10;99.90;;;;;;4948974;28;20561;-63
2022/05/25 04:15:10;;;;;;;21.48;11.98;;;10.10;99.90;;;;;;4950023;28;20466;-65
2022/05/25 04:17:36;;;;;;;13.88;11.05;;;10.10;99.90;;;;;;4947982;28;20073;-63
2022/05/25 04:20:04;;;;;;;13.68;9.18;;;10.10;99.90;;;;;;4942575;28;20117;-63
2022/05/25 04:22:32;;;;;;;17.02;11.18;;;10.10;99.90;;;;;;4972482;23;20038;-54
2022/05/25 04:25:01;;;;;;;18.73;11.18;;;10.20;99.90;;;;;;4960021;28;20042;-54
2022/05/25 04:27:28;;;;;;;16.50;11.18;;;10.20;99.90;;;;;;4956069;28;20042;-52
2022/05/25 04:29:54;;;;;;;18.10;12.27;;;10.20;99.90;;;;;;4941699;28;20042;-55
2022/05/25 04:32:20;;;;;;;17.42;11.23;;;10.20;99.90;;;;;;4946616;28;20050;-55
2022/05/25 04:34:45;;;;;;;19.80;12.60;;;10.20;99.90;;;;;;4933689;28;20097;-52
2022/05/25 04:39:56;;;;;;;16.30;10.68;;;10.30;99.90;;;;;;4932283;28;20051;-54
2022/05/25 04:42:22;;;;;;;17.63;12.07;;;10.40;99.90;;;;;;4936905;28;20050;-53
2022/05/25 04:44:47;;;;;;;15.35;10.85;;;10.40;99.90;;;;;;4921711;28;20117;-55
2022/05/25 04:47:13;;;;;;;15.43;10.55;;;10.40;99.90;;;;;;4933066;28;20098;-55
2022/05/25 04:49:44;;;;;;;15.80;11.80;;;10.50;99.90;;;;;;4919461;28;20035;-56
2022/05/25 04:52:10;;;;;;;17.35;12.07;;;10.50;99.90;;;;;;4943496;28;20393;-54
2022/05/25 04:54:36;;;;;;;17.73;11.60;;;10.60;99.90;;;;;;4922567;28;20043;-54
2022/05/25 04:57:21;;;;;;;20.08;11.50;;;10.60;99.90;;;;;;4930400;28;20041;-53
2022/05/25 04:59:51;;;;;;;16.27;11.18;;;10.70;99.90;;;;;;4950012;28;20070;-52
2022/05/25 05:02:18;;;;;;;18.50;13.90;;;10.80;99.90;;;;;;4932973;28;20125;-54
2022/05/25 05:04:44;;;;;;;17.15;12.18;;;10.80;99.90;;;;;;4923550;28;20049;-54
2022/05/25 05:07:11;;;;;;;18.35;12.85;;;10.90;99.90;;;;;;4945556;28;20181;-55
2022/05/25 05:09:39;;;;;;;22.60;12.75;;;10.90;99.90;;;;;;4940159;28;20046;-55
2022/05/25 05:12:05;;;;;;;17.23;11.15;;;11.00;99.90;;;;;;4932655;28;20899;-56
2022/05/25 05:14:31;;;;;;;21.20;11.73;;;11.10;99.90;;;;;;4915736;28;20042;-54
2022/05/25 05:16:59;;;;;;;17.40;12.13;;;11.20;99.90;;;;;;4935144;28;20599;-52
2022/05/25 05:19:26;;;;;;;15.52;11.88;;;11.30;99.90;;;;;;4915635;28;20055;-53
2022/05/25 05:21:54;;;;;;;18.30;11.73;;;11.40;99.90;;;;;;4919277;28;20062;-57
2022/05/25 05:24:28;;;;;;;18.08;11.63;;;11.40;99.90;;;;;;4931327;28;20497;-55
2022/05/25 05:26:54;;;;;;;12.65;10.18;;;11.60;99.90;;;;;;4945033;28;20517;-52
2022/05/25 05:29:20;;;;;;;17.30;10.60;;;11.60;99.90;;;;;;4949237;28;20050;-54
2022/05/25 05:31:46;;;;;;;17.95;11.52;;;11.70;99.90;;;;;;4933665;28;20035;-56
2022/05/25 05:34:12;;;;;;;15.38;10.45;;;11.80;99.90;;;;;;4942217;28;20413;-52
2022/05/25 05:36:50;;;;;;;16.70;11.07;;;11.90;99.90;;;;;;4931003;28;20047;-56
2022/05/25 05:39:18;;;;;;;15.25;10.70;;;12.00;99.90;;;;;;4950366;28;20065;-58
2022/05/25 05:41:55;;;;;;;14.38;10.00;;;12.10;99.90;;;;;;4932124;28;20044;-55
2022/05/25 05:44:27;;;;;;;17.08;9.52;;;12.20;99.90;;;;;;4917079;28;20544;-54
2022/05/25 05:46:58;;;;;;;15.40;9.63;;;12.30;99.90;;;;;;4929480;28;20501;-55
2022/05/25 05:49:24;;;;;;;12.27;9.18;;;12.40;99.90;;;;;;4925157;28;20412;-58
2022/05/25 05:51:50;;;;;;;12.93;9.05;;;12.50;99.90;;;;;;4942901;28;20047;-53
2022/05/25 05:54:17;;;;;;;14.30;9.35;;;12.60;99.90;;;;;;4936016;28;20042;-54
2022/05/25 05:56:44;;;;;;;11.93;7.22;;;12.70;99.90;;;;;;4946413;28;20453;-55
2022/05/25 05:59:10;;;;;;;10.70;7.38;;;12.80;99.90;;;;;;4934664;28;20087;-54
2022/05/25 06:01:36;;;;;;;10.05;6.10;;;12.90;99.90;;;;;;4956086;28;20043;-59
2022/05/25 06:04:03;;;;;;;10.60;5.93;;;13.00;99.90;;;;;;4937123;28;20035;-57
2022/05/25 06:06:29;;;;;;;12.32;6.38;;;13.20;99.90;;;;;;4953628;28;20178;-54
2022/05/25 06:08:56;;;;;;;10.18;6.25;;;13.20;99.90;;;;;;4914835;28;20051;-53
2022/05/25 06:11:23;;;;;;;10.93;6.68;;;13.30;99.90;;;;;;4905150;28;20449;-56
2022/05/25 06:13:49;;;;;;;12.85;8.60;;;13.40;99.90;;;;;;4932781;28;20145;-58
2022/05/25 06:21:43;;;;;;;14.02;8.77;;;13.70;99.90;;;;;;4924869;28;20055;-56
2022/05/25 06:24:09;;;;;;;11.13;7.32;;;13.80;99.90;;;;;;4935612;28;20482;-58
2022/05/25 06:26:35;;;;;;;10.07;7.85;;;13.80;99.90;;;;;;4938942;28;20102;-58
2022/05/25 06:29:02;;;;;;;8.77;6.88;;;13.90;99.90;;;;;;4952383;28;20039;-55
2022/05/25 06:31:29;;;;;;;12.10;8.00;;;14.00;99.90;;;;;;4919749;28;20051;-56
2022/05/25 06:33:55;;;;;;;12.70;7.70;;;14.00;99.90;;;;;;4940691;28;20485;-52
2022/05/25 06:36:24;;;;;;;9.13;6.43;;;14.10;99.90;;;;;;4949403;28;20035;-51
2022/05/25 06:38:50;;;;;;;10.15;6.25;;;14.20;99.90;;;;;;4933807;28;20485;-62
2022/05/25 06:41:16;;;;;;;10.70;7.07;;;14.30;99.90;;;;;;4947932;28;20051;-58
2022/05/25 06:43:42;;;;;;;10.98;7.70;;;14.40;99.90;;;;;;4936155;28;20046;-56
2022/05/25 06:46:10;;;;;;;10.73;7.05;;;14.50;99.90;;;;;;4926241;28;20066;-56
2022/05/25 06:48:35;;;;;;;12.82;7.28;;;14.50;99.90;;;;;;4938213;28;20039;-52
2022/05/25 06:51:24;;;;;;;9.85;6.93;;;14.60;99.90;;;;;;4952495;28;20057;-52
2022/05/25 06:53:50;;;;;;;8.73;7.18;;;14.70;99.90;;;;;;4934860;28;20278;-57
2022/05/25 06:56:17;;;;;;;22.10;7.63;;;14.80;99.90;;;;;;4952952;28;20509;-52
2022/05/25 06:58:43;;;;;;;12.48;7.15;;;14.80;99.90;;;;;;4943904;28;20075;-56
2022/05/25 07:01:09;;;;;;;15.38;8.30;;;14.90;99.90;;;;;;4920312;28;20043;-56
2022/05/25 07:03:35;;;;;;;10.75;6.45;;;15.00;99.90;;;;;;4924440;28;20043;-59
2022/05/25 07:06:06;;;;;;;11.05;6.47;;;15.10;99.90;;;;;;4940979;28;20569;-58
2022/05/25 07:08:32;;;;;;;9.48;7.32;;;15.20;99.90;;;;;;4919727;28;20042;-55
2022/05/25 07:10:58;;;;;;;8.70;7.10;;;15.30;99.90;;;;;;4919173;28;20082;-55
2022/05/25 07:13:25;;;;;;;11.23;6.40;;;15.40;99.90;;;;;;4940692;28;20043;-57
2022/05/25 07:15:59;;;;;;;7.57;6.03;;;15.60;99.90;;;;;;4920468;28;20082;-58
2022/05/25 07:18:26;;;;;;;10.43;6.32;;;15.80;99.90;;;;;;4924050;28;20105;-57
2022/05/25 07:20:52;;;;;;;12.15;6.65;;;15.90;99.90;;;;;;4919740;28;20068;-58
2022/05/25 07:23:19;;;;;;;14.77;6.32;;;15.80;99.90;;;;;;4923939;28;20042;-58
2022/05/25 07:25:46;;;;;;;6.38;3.70;;;15.80;99.90;;;;;;4916221;28;20724;-53
2022/05/25 07:28:12;;;;;;;4.13;3.05;;;15.80;99.90;;;;;;4925056;28;20070;-57
2022/05/25 07:30:38;;;;;;;4.45;2.67;;;15.80;99.90;;;;;;4938693;28;20498;-61
2022/05/25 07:33:05;;;;;;;6.05;2.67;;;15.80;99.90;;;;;;4978855;23;20042;-66
2022/05/25 07:35:31;;;;;;;5.90;2.80;;;15.80;99.90;;;;;;4991917;28;20160;-63
2022/05/25 07:37:58;;;;;;;6.45;3.40;;;15.70;99.90;;;;;;5007482;28;20034;-64
2022/05/25 07:40:37;;;;;;;6.72;3.80;;;15.70;99.90;;;;;;4976156;28;20038;-62
2022/05/25 07:43:09;;;;;;;4.63;3.67;;;15.70;99.90;;;;;;4979588;28;20478;-67
2022/05/25 07:45:36;;;;;;;5.22;3.05;;;15.80;99.90;;;;;;4974507;28;20462;-64
2022/05/25 07:48:02;;;;;;;7.53;3.28;;;16.10;99.90;;;;;;4975085;28;20040;-64
2022/05/25 07:50:28;;;;;;;5.55;3.10;;;16.30;99.90;;;;;;4967002;28;20043;-63
2022/05/25 07:52:56;;;;;;;4.32;3.28;;;16.40;99.90;;;;;;4950029;28;20489;-64
2022/05/25 07:55:22;;;;;;;6.70;2.65;;;16.40;99.90;;;;;;4966341;28;20050;-71
2022/05/25 07:57:49;;;;;;;6.05;2.90;;;16.30;99.90;;;;;;4959873;28;20078;-65
2022/05/25 08:00:16;;;;;;;6.35;2.97;;;16.20;99.90;;;;;;4945955;28;20043;-62
2022/05/25 08:05:44;;;;;;;10.45;3.85;;;16.20;99.90;;;;;;4956282;28;20541;-67
2022/05/25 08:08:18;;;;;;;4.35;2.67;;;16.40;99.90;;;;;;4954909;28;20066;-62
2022/05/25 08:10:50;;;;;;;7.13;3.35;;;16.60;99.90;;;;;;4967903;28;20042;-62
2022/05/25 08:13:17;;;;;;;9.52;3.35;;;16.70;99.90;;;;;;4958082;28;20531;-62
2022/05/25 08:15:44;;;;;;;6.50;3.25;;;16.70;99.90;;;;;;4959971;28;22093;-67
2022/05/25 08:18:12;;;;;;;8.85;3.95;;;16.70;99.90;;;;;;4973245;28;20039;-64
2022/05/25 08:20:38;;;;;;;7.07;4.00;;;16.70;99.90;;;;;;4959659;28;20421;-64
2022/05/25 08:23:09;;;;;;;6.38;3.30;;;16.70;99.90;;;;;;4952274;28;20045;-61
2022/05/25 08:25:35;;;;;;;5.47;3.58;;;16.70;99.90;;;;;;4956720;28;20042;-61
2022/05/25 08:28:02;;;;;;;13.40;5.43;;;16.60;99.90;;;;;;4952774;28;20409;-66
2022/05/25 08:30:28;;;;;;;6.05;3.53;;;16.50;99.90;;;;;;4953268;28;20543;-67
2022/05/25 08:32:55;;;;;;;6.80;4.15;;;16.50;99.90;;;;;;4953554;28;20133;-63
2022/05/25 08:35:21;;;;;;;7.13;5.10;;;16.60;99.90;;;;;;4973325;28;20109;-62
2022/05/25 08:37:47;;;;;;;8.93;5.22;;;16.70;99.90;;;;;;4958038;28;20217;-62
2022/05/25 08:40:17;;;;;;;7.78;5.00;;;16.70;99.90;;;;;;4934368;28;20117;-62
2022/05/25 08:42:53;;;;;;;7.63;4.25;;;16.80;99.90;;;;;;4974278;28;20046;-66
2022/05/25 08:45:20;;;;;;;7.35;4.68;;;16.80;99.90;;;;;;4954794;28;20058;-65
2022/05/25 08:47:51;;;;;;;7.82;5.70;;;16.90;99.90;;;;;;4958384;28;20834;-64
2022/05/25 08:50:17;;;;;;;8.23;5.00;;;16.90;99.90;;;;;;4944123;28;20038;-61
2022/05/25 08:52:44;;;;;;;7.93;6.15;;;16.90;99.90;;;;;;4969538;28;20042;-63
2022/05/25 08:55:16;;;;;;;12.93;6.82;;;17.10;99.90;;;;;;4967178;28;20039;-68
2022/05/25 08:57:50;;;;;;;7.72;6.68;;;17.20;99.90;;;;;;4975363;28;20043;-63
2022/05/25 09:00:18;;;;;;;10.25;7.28;;;17.30;99.90;;;;;;4957898;28;20046;-62
2022/05/25 09:03:08;;;;;;;10.93;8.30;;;17.50;99.90;;;;;;4975977;28;20486;-63
2022/05/25 09:06:03;;;;;;;9.43;7.45;;;17.50;99.90;;;;;;4969321;28;20097;-63
2022/05/25 09:08:50;;;;;;;9.65;6.60;;;17.40;99.90;;;;;;4972044;28;20046;-61
2022/05/25 09:11:21;;;;;;;10.10;6.15;;;17.30;99.90;;;;;;4973694;28;20393;-63
2022/05/25 09:14:01;;;;;;;9.05;6.25;;;17.40;99.90;;;;;;4967995;28;20042;-62
2022/05/25 09:16:37;;;;;;;9.50;7.13;;;17.40;99.90;;;;;;4973967;28;20162;-67
2022/05/25 09:19:17;;;;;;;12.05;8.32;;;17.40;99.90;;;;;;4976463;28;20735;-64
2022/05/25 09:21:52;;;;;;;12.80;8.25;;;17.30;99.90;;;;;;4968650;28;20034;-64
2022/05/25 09:24:24;;;;;;;14.48;8.38;;;17.30;99.90;;;;;;4970681;28;20049;-62
2022/05/25 09:26:51;;;;;;;9.73;7.85;;;17.20;99.90;;;;;;4972175;28;20043;-63
2022/05/25 09:29:17;;;;;;;9.77;6.68;;;17.20;99.90;;;;;;4974812;28;20035;-62
2022/05/25 09:31:48;;;;;;;21.92;8.60;;;17.30;99.90;;;;;;4969620;28;20055;-63
2022/05/25 09:34:39;;;;;;;10.23;9.18;;;17.40;99.90;;;;;;4977657;28;20042;-63
2022/05/25 09:37:35;;;;;;;13.25;9.40;;;17.60;99.90;;;;;;4976604;28;20047;-64
2022/05/25 09:40:04;;;;;;;10.98;8.40;;;17.90;99.90;;;;;;4976948;28;20597;-62
2022/05/25 09:42:34;;;;;;;10.55;7.78;;;17.90;99.90;;;;;;4975450;28;20074;-68
2022/05/25 09:45:00;;;;;;;13.65;7.53;;;17.90;99.90;;;;;;4978444;28;20042;-62
2022/05/25 09:47:48;;;;;;;11.43;8.30;;;17.80;99.90;;;;;;4976132;28;20061;-64
2022/05/25 09:50:41;;;;;;;12.02;8.68;;;17.60;99.90;;;;;;4971517;28;20101;-65
2022/05/25 09:53:12;;;;;;;14.27;9.80;;;17.40;99.90;;;;;;4974379;28;20069;-61
2022/05/25 09:55:43;;;;;;;13.15;10.82;;;17.20;99.90;;;;;;4955085;28;20043;-62
2022/05/25 09:58:28;;;;;;;13.40;10.65;;;16.90;99.90;;;;;;4970727;28;20043;-66
2022/05/25 10:01:16;;;;;;;13.23;10.75;;;16.70;99.90;;;;;;4971471;28;20049;-61
2022/05/25 10:03:44;;;;;;;12.20;7.50;;;16.60;99.90;;;;;;4975073;28;20050;-63
2022/05/25 10:06:50;;;;;;;5.47;4.32;;;16.70;99.90;;;;;;4973154;28;20217;-68
2022/05/25 10:09:18;;;;;;;3.33;2.47;;;16.70;99.90;;;;;;4941594;29;20047;-62
2022/05/25 10:11:53;;;;;;;3.90;2.30;;;16.90;99.90;;;;;;4972583;28;20051;-69
2022/05/25 10:14:39;;;;;;;4.90;2.97;;;16.90;99.90;;;;;;4973393;28;20050;-63
2022/05/25 10:17:13;;;;;;;8.13;5.82;;;16.80;99.90;;;;;;4970649;28;20055;-63
2022/05/25 10:19:49;;;;;;;7.90;7.10;;;16.70;99.90;;;;;;4970071;28;20104;-68
2022/05/25 10:24:49;;;;;;;10.35;6.43;;;16.30;99.90;;;;;;4989827;28;20504;-61
2022/05/25 10:27:35;;;;;;;6.60;4.82;;;16.00;99.90;;;;;;4976675;28;20145;-63
2022/05/25 10:36:47;;;;;;;3.58;2.22;;;14.90;99.90;;;;;;4990259;28;20519;-58
2022/05/25 10:39:21;;;;;;;6.30;2.58;;;14.70;99.90;;;;;;4983206;28;20053;-61
2022/05/25 10:42:11;;;;;;;4.93;2.13;;;14.50;99.90;;;;;;4984479;28;20046;-61
2022/05/25 10:44:36;;;;;;;3.28;1.90;;;14.50;99.90;;;;;;4981065;28;20037;-61
2022/05/25 10:47:03;;;;;;;5.57;1.98;;;14.50;99.90;;;;;;4984854;28;20043;-59
2022/05/25 10:49:31;;;;;;;4.40;2.25;;;14.50;99.90;;;;;;4984319;28;20073;-60
2022/05/25 10:52:19;;;;;;;3.17;1.90;;;14.60;99.90;;;;;;4999562;28;20044;-63
2022/05/25 10:54:45;;;;;;;4.13;2.58;;;14.50;99.90;;;;;;4981985;28;20046;-59
2022/05/25 11:08:55;;;;;;;12.23;9.65;;;15.60;99.90;;;;;;4993113;28;20073;-56
2022/05/25 11:11:34;;;;;;;13.25;10.85;;;16.00;99.90;;;;;;4998873;28;20088;-58
2022/05/25 11:14:18;;;;;;;19.90;13.07;;;16.20;99.90;;;;;;5001488;28;20658;-58
2022/05/25 11:17:09;;;;;;;18.30;13.52;;;16.30;99.90;;;;;;5002143;28;20053;-58
2022/05/25 11:20:04;;;;;;;15.43;13.88;;;16.70;99.90;;;;;;5008861;28;20042;-59
2022/05/25 11:23:20;;;;;;;15.95;13.27;;;17.10;99.90;;;;;;4985942;28;20053;-62
2022/05/25 11:26:30;;;;;;;7.90;5.00;;;17.60;99.90;;;;;;5009688;28;20540;-60
2022/05/25 11:29:15;;;;;;;5.30;2.17;;;17.70;99.90;;;;;;4997432;28;20533;-59
2022/05/25 11:31:56;;;;;;;3.08;0.98;;;17.80;99.90;;;;;;5002432;28;20116;-59
2022/05/25 11:34:25;;;;;;;5.80;1.40;;;17.90;99.90;;;;;;4997947;28;20041;-60
2022/05/25 11:37:15;;;;;;;5.30;1.17;;;17.70;98.90;;;;;;4995207;28;20045;-62
2022/05/25 11:39:52;;;;;;;3.90;1.00;;;17.60;99.10;;;;;;4998533;28;20124;-62
2022/05/25 11:42:47;;;;;;;6.32;1.00;;;17.50;97.50;;;;;;4994512;28;20073;-59
2022/05/25 11:45:51;;;;;;;3.80;0.80;;;17.60;97.20;;;;;;4989806;28;20065;-60
2022/05/25 11:48:26;;;;;;;3.17;0.80;;;17.80;97.90;;;;;;5009726;28;20049;-60
2022/05/25 11:51:16;;;;;;;5.07;1.02;;;18.00;97.80;;;;;;5004565;28;20049;-62
2022/05/25 11:54:05;;;;;;;4.80;0.80;;;18.00;94.90;;;;;;5004874;28;20145;-61
2022/05/25 11:56:52;;;;;;;3.53;0.80;;;18.00;94.60;;;;;;5000803;28;20120;-60
2022/05/25 11:59:36;;;;;;;3.53;0.80;;;17.80;93.80;;;;;;4997253;28;20034;-60
2022/05/25 12:02:11;;;;;;;3.45;0.80;;;17.70;93.50;;;;;;5000220;28;20050;-60
2022/05/25 12:04:48;;;;;;;2.53;0.80;;;17.80;94.00;;;;;;4996870;28;20681;-60
2022/05/25 12:07:25;;;;;;;3.88;1.23;;;17.90;92.80;;;;;;5011571;28;20185;-60
2022/05/25 12:10:26;;;;;;;3.80;0.90;;;17.90;92.30;;;;;;5005394;28;20121;-61
2022/05/25 12:13:07;;;;;;;3.55;0.80;;;18.20;92.00;;;;;;4998972;28;20038;-62
2022/05/25 12:15:43;;;;;;;2.53;0.90;;;18.30;92.30;;;;;;5004845;28;20037;-60
2022/05/25 12:18:20;;;;;;;6.03;1.27;;;18.30;90.60;;;;;;5001571;28;20066;-61
2022/05/25 12:20:55;;;;;;;2.17;1.02;;;18.40;89.70;;;;;;5002471;28;20080;-63
2022/05/25 12:23:28;;;;;;;3.00;0.80;;;18.60;92.50;;;;;;5009526;28;20034;-61
2022/05/25 12:26:05;;;;;;;3.45;0.80;;;18.70;91.70;;;;;;5011030;28;20042;-60
2022/05/25 12:28:38;;;;;;;2.50;0.70;;;18.60;90.50;;;;;;5005738;28;20038;-62
2022/05/25 12:31:20;;;;;;;2.35;1.00;;;18.50;86.80;;;;;;4997590;28;20209;-60
2022/05/25 12:33:46;;;;;;;1.73;0.63;;;18.30;88.40;;;;;;4985976;28;20038;-61
2022/05/25 12:36:13;;;;;;;3.92;0.80;;;18.20;89.00;;;;;;4998523;28;20112;-61
2022/05/25 12:38:40;;;;;;;2.78;0.90;;;18.10;89.60;;;;;;4993952;28;20468;-58
2022/05/25 12:41:25;;;;;;;6.40;0.93;;;18.20;90.50;;;;;;5001045;28;20449;-62
2022/05/25 12:43:59;;;;;;;3.22;0.95;;;18.30;91.30;;;;;;5004593;28;20192;-60
2022/05/25 12:49:45;;;;;;;2.92;0.93;;;18.50;91.10;;;;;;4980513;28;20505;-61
2022/05/25 12:52:26;;;;;;;5.95;1.65;;;18.40;91.10;;;;;;4999728;28;20124;-58
2022/05/25 12:55:16;;;;;;;2.25;0.80;;;18.20;90.00;;;;;;4992034;28;20038;-65
2022/05/25 12:57:52;;;;;;;5.25;1.08;;;18.00;90.40;;;;;;4981917;28;20685;-61
2022/05/25 13:00:35;;;;;;;2.90;1.00;;;17.90;90.50;;;;;;4993375;28;20178;-61
2022/05/25 13:03:18;;;;;;;4.40;1.08;;;17.80;90.10;;;;;;4996517;28;20370;-63
2022/05/25 13:05:46;;;;;;;2.85;0.80;;;17.70;90.90;;;;;;4990835;28;20042;-62
2022/05/25 13:08:50;;;;;;;3.85;1.05;;;17.70;91.80;;;;;;4983835;28;20039;-66
2022/05/25 13:11:42;;;;;;;4.77;0.90;;;17.80;91.10;;;;;;4956002;28;20054;-61
2022/05/25 13:14:16;;;;;;;3.55;1.17;;;17.70;92.20;;;;;;5000215;28;20330;-62
2022/05/25 13:16:48;;;;;;;5.45;1.05;;;17.60;91.60;;;;;;4998629;28;20431;-57
2022/05/25 13:19:32;;;;;;;3.20;1.05;;;17.40;91.50;;;;;;5005390;28;20527;-57
2022/05/25 13:22:04;;;;;;;4.60;1.23;;;17.40;91.20;;;;;;5008711;28;20049;-61
2022/05/25 13:25:08;;;;;;;5.78;1.40;;;17.40;91.50;;;;;;5008379;28;20517;-59
2022/05/25 13:28:04;;;;;;;4.97;0.98;;;17.40;91.50;;;;;;5002338;28;20045;-60
2022/05/25 13:30:39;;;;;;;2.75;0.77;;;17.40;91.20;;;;;;4994582;28;20108;-61
2022/05/25 13:33:20;;;;;;;3.85;1.02;;;17.40;92.00;;;;;;4997716;28;20040;-61
2022/05/25 13:35:50;;;;;;;2.90;0.80;;;17.50;91.70;;;;;;4999112;28;20034;-59
2022/05/25 13:38:22;;;;;;;6.10;0.90;;;17.50;92.50;;;;;;5000367;28;20068;-60
2022/05/25 13:40:56;;;;;;;3.10;0.90;;;17.60;92.70;;;;;;5015007;28;20116;-60
2022/05/25 13:43:37;;;;;;;4.20;1.23;;;17.50;92.50;;;;;;4998676;28;20635;-59
2022/05/25 13:46:03;;;;;;;2.63;0.98;;;17.60;92.80;;;;;;4998591;28;20735;-60
2022/05/25 13:48:29;;;;;;;4.18;1.33;;;17.40;92.80;;;;;;4996447;28;20049;-59
2022/05/25 13:50:57;;;;;;;2.67;0.75;;;17.40;93.10;;;;;;4999407;28;20112;-60